Burnt Hills, New York
Current Conditions -  °F | °C
As of 3:51 PM on Thursday 23 Oct 2014 (Local Time) from KALB Reporting Station
Light Rain Light Rain  
Wind Chill:   Ceiling: 1800
Heat Index:   Visibility: 10mi
Dew Point:   Wind: 14mph
Humidity: 80%   Direction: 10°N
Pressure: 29.82"   Gusts: 25mph
Location:  42.91°N, 73.9°W
Report Text: KALB 231951Z 01012G22KT 10SM -RA FEW012 BKN018 OVC024 09/06 A2982 RMK AO2 RAB46 SLP098 PCPN VRY LGT P0000 T00940061
Loading
Personal Weather Stations






























Interactive Weather Map
Tropical Storm Tracking
New forecast layout! Learn more

10-Day Weather Forecast

Advertisements
Track Severe Weather on mobile